createdAt,value
2023-03-31T00:04:53.103Z,74.88
2023-03-31T00:10:10.368Z,74.80
2023-03-31T00:15:14.339Z,74.69
2023-03-31T00:20:17.991Z,74.62
2023-03-31T00:25:21.928Z,74.63
2023-03-31T00:30:25.525Z,74.61
2023-03-31T00:35:29.075Z,74.95
2023-03-31T00:40:32.777Z,75.60
2023-03-31T00:45:36.811Z,76.02
2023-03-31T00:51:00.861Z,76.41
2023-03-31T00:56:15.577Z,76.57
2023-03-31T01:01:26.980Z,76.56
2023-03-31T01:06:31.289Z,76.49
2023-03-31T01:11:35.680Z,76.53
2023-03-31T01:16:40.217Z,76.24
2023-03-31T01:22:12.904Z,75.84
2023-03-31T01:27:37.614Z,75.97
2023-03-31T01:33:33.224Z,76.06
2023-03-31T01:39:11.916Z,76.04
2023-03-31T01:44:42.304Z,76.07
2023-03-31T01:50:10.660Z,76.06
2023-03-31T01:55:46.823Z,75.96
2023-03-31T02:01:15.143Z,75.80
2023-03-31T02:06:28.940Z,75.70
2023-03-31T02:11:34.430Z,75.86
2023-03-31T02:16:48.160Z,75.40
2023-03-31T02:21:53.026Z,75.37
2023-03-31T02:27:36.685Z,75.12
2023-03-31T02:32:47.060Z,75.16
2023-03-31T02:37:51.104Z,75.19
2023-03-31T02:42:54.884Z,75.40
2023-03-31T02:47:58.426Z,75.34
2023-03-31T02:53:29.186Z,75.37
2023-03-31T02:59:12.360Z,74.87
2023-03-31T03:04:42.101Z,75.04
2023-03-31T03:10:13.151Z,75.40
2023-03-31T03:15:29.387Z,75.40
2023-03-31T03:20:36.223Z,75.73
2023-03-31T03:25:39.703Z,75.68
2023-03-31T03:30:43.321Z,75.77
2023-03-31T03:35:46.909Z,75.98
2023-03-31T03:40:54.373Z,75.92
2023-03-31T03:45:58.011Z,76.18
2023-03-31T03:51:02.477Z,76.19
2023-03-31T03:56:06.774Z,76.37
2023-03-31T04:01:10.966Z,76.59
2023-03-31T04:06:14.580Z,76.74
2023-03-31T04:11:19.790Z,76.83
2023-03-31T04:16:26.295Z,76.93
2023-03-31T04:21:35.194Z,77.04
2023-03-31T04:26:44.544Z,77.15
2023-03-31T04:31:48.301Z,77.41
2023-03-31T04:36:51.793Z,77.00
2023-03-31T04:41:55.788Z,76.66
2023-03-31T04:47:03.687Z,77.57
2023-03-31T04:52:07.399Z,78.46
2023-03-31T04:57:12.297Z,78.45
2023-03-31T05:02:25.414Z,78.40
2023-03-31T05:07:29.418Z,78.42
2023-03-31T05:12:38.312Z,78.34
2023-03-31T05:17:41.949Z,78.17
2023-03-31T05:22:47.544Z,78.20
2023-03-31T05:27:51.409Z,78.20
2023-03-31T05:32:55.232Z,78.03
2023-03-31T05:37:58.949Z,77.65
2023-03-31T05:43:02.523Z,77.30
2023-03-31T05:48:07.333Z,77.11
2023-03-31T05:53:11.434Z,77.07
2023-03-31T05:58:15.109Z,77.50
2023-03-31T06:03:18.693Z,77.60
2023-03-31T06:08:22.323Z,78.03
2023-03-31T06:13:25.908Z,77.66
2023-03-31T06:18:32.419Z,77.30
2023-03-31T06:23:36.880Z,77.17
2023-03-31T06:28:40.766Z,77.01
2023-03-31T06:33:45.376Z,77.29
2023-03-31T06:38:51.358Z,77.57
2023-03-31T06:43:55.180Z,77.70
2023-03-31T06:48:58.850Z,77.38
2023-03-31T06:54:02.638Z,77.08
2023-03-31T06:59:06.292Z,76.77
2023-03-31T07:04:10.126Z,76.48
2023-03-31T07:09:13.757Z,76.40
2023-03-31T07:14:17.420Z,76.32
2023-03-31T07:19:24.230Z,76.58
2023-03-31T07:24:28.040Z,76.52
2023-03-31T07:29:31.796Z,76.44
2023-03-31T07:34:37.750Z,76.44
2023-03-31T07:39:41.765Z,76.30
2023-03-31T07:44:45.663Z,75.95
2023-03-31T07:49:49.379Z,76.23
2023-03-31T07:54:53.289Z,76.34
2023-03-31T07:59:56.913Z,76.30
2023-03-31T08:05:01.039Z,76.50
2023-03-31T08:10:08.921Z,76.57
2023-03-31T08:15:13.181Z,76.32
2023-03-31T08:20:16.928Z,76.00
2023-03-31T08:25:21.712Z,75.49
2023-03-31T08:30:25.423Z,75.21
2023-03-31T08:35:29.134Z,75.18
2023-03-31T08:40:34.795Z,75.20
2023-03-31T08:45:48.235Z,75.28
2023-03-31T08:51:14.559Z,75.20
2023-03-31T08:56:23.252Z,74.92
2023-03-31T09:01:55.488Z,74.44
2023-03-31T09:07:32.524Z,74.24
2023-03-31T09:12:52.156Z,74.25
2023-03-31T09:18:07.779Z,74.43
2023-03-31T09:23:20.489Z,74.26
2023-03-31T09:28:38.183Z,74.15
2023-03-31T09:33:47.227Z,73.69
2023-03-31T09:38:51.997Z,73.41
2023-03-31T09:43:55.679Z,73.32
2023-03-31T09:49:17.371Z,73.04
2023-03-31T09:54:37.365Z,73.13
2023-03-31T09:59:41.739Z,73.26
2023-03-31T10:04:47.172Z,73.48
2023-03-31T10:09:53.437Z,73.65
2023-03-31T10:15:21.237Z,73.95
2023-03-31T10:20:38.729Z,73.72
2023-03-31T10:25:48.017Z,73.37
2023-03-31T10:31:01.880Z,73.27
2023-03-31T10:36:20.530Z,73.20
2023-03-31T10:41:31.618Z,73.32
2023-03-31T10:46:53.132Z,73.54
2023-03-31T10:52:00.270Z,73.55
2023-03-31T10:57:07.311Z,73.44
2023-03-31T11:02:41.602Z,73.08
2023-03-31T11:08:17.368Z,72.66
2023-03-31T11:13:34.102Z,72.63
2023-03-31T11:19:41.247Z,72.39
2023-03-31T11:25:28.051Z,72.33
2023-03-31T11:31:05.243Z,72.30
2023-03-31T11:36:26.577Z,72.27
2023-03-31T11:42:16.486Z,72.20
2023-03-31T11:47:38.892Z,72.18
2023-03-31T11:53:18.656Z,71.94
2023-03-31T11:58:45.314Z,71.47
2023-03-31T12:04:32.586Z,70.91
2023-03-31T12:10:19.485Z,70.43
2023-03-31T12:16:02.540Z,70.25
2023-03-31T12:21:10.773Z,70.42
2023-03-31T12:26:58.058Z,70.23
2023-03-31T12:32:13.522Z,70.39
2023-03-31T12:37:35.963Z,70.44
2023-03-31T12:43:02.640Z,70.13
2023-03-31T12:48:54.873Z,70.27
2023-03-31T12:54:08.860Z,70.69
2023-03-31T12:59:32.789Z,70.44
2023-03-31T13:04:39.611Z,70.29
2023-03-31T13:10:23.843Z,69.41
2023-03-31T13:15:31.195Z,67.51
2023-03-31T13:32:23.736Z,64.47
2023-03-31T13:37:36.144Z,63.46
2023-03-31T13:43:19.503Z,62.60
2023-03-31T13:48:55.417Z,62.56
2023-03-31T13:54:56.463Z,63.11
2023-03-31T14:00:44.296Z,63.49
2023-03-31T14:20:31.271Z,60.21
2023-03-31T14:33:33.287Z,59.87
2023-03-31T15:00:55.768Z,61.82
2023-03-31T15:06:51.281Z,59.97
2023-03-31T15:13:21.888Z,58.31
2023-03-31T15:18:54.893Z,61.42
2023-03-31T15:24:15.911Z,61.13
2023-03-31T15:29:49.917Z,57.95
2023-03-31T15:35:34.535Z,59.67
2023-03-31T15:48:53.377Z,57.22
2023-03-31T16:02:34.440Z,62.47
2023-03-31T16:15:08.400Z,61.43
2023-03-31T16:21:05.631Z,61.89
2023-03-31T16:26:09.464Z,59.95
2023-03-31T16:32:29.445Z,61.49
2023-03-31T16:39:05.656Z,63.45
2023-03-31T16:44:09.209Z,60.23
2023-03-31T16:49:12.811Z,62.22
2023-03-31T16:54:42.039Z,62.96
2023-03-31T16:59:46.255Z,60.03
2023-03-31T17:04:50.775Z,62.77
2023-03-31T17:10:22.148Z,60.46
2023-03-31T17:15:25.901Z,58.86
2023-03-31T17:27:49.844Z,60.70
2023-03-31T17:40:01.704Z,56.31
2023-03-31T17:59:39.636Z,66.07
2023-03-31T18:04:43.395Z,64.09
2023-03-31T18:09:46.985Z,61.05
2023-03-31T18:14:52.714Z,57.76
2023-03-31T18:19:56.731Z,57.14
2023-03-31T18:25:00.377Z,59.83
2023-03-31T18:30:06.377Z,61.80
2023-03-31T18:35:10.514Z,66.91
2023-03-31T18:40:15.228Z,64.81
2023-03-31T18:45:19.125Z,58.92
2023-03-31T18:50:49.430Z,58.50
2023-03-31T19:18:00.078Z,63.60
2023-03-31T19:37:59.050Z,61.93
2023-03-31T19:43:21.416Z,62.60
2023-03-31T19:49:45.628Z,62.77
2023-03-31T20:02:18.089Z,65.58
2023-03-31T20:08:13.364Z,66.05
2023-03-31T20:13:43.786Z,65.07
2023-03-31T20:18:58.885Z,66.05
2023-03-31T20:24:03.206Z,66.89
2023-03-31T20:29:06.970Z,67.95
2023-03-31T20:34:17.445Z,68.59
2023-03-31T20:54:04.238Z,69.45
2023-03-31T21:09:39.989Z,69.95
2023-03-31T21:14:44.129Z,69.68
2023-03-31T21:19:47.962Z,69.18
2023-03-31T21:26:13.806Z,68.66
2023-03-31T21:31:19.393Z,69.13
2023-03-31T21:36:24.064Z,70.39
2023-03-31T21:49:38.758Z,67.93
2023-03-31T21:55:18.630Z,70.08
2023-03-31T22:00:23.180Z,71.42
2023-03-31T22:05:26.887Z,71.59
2023-03-31T22:10:30.514Z,72.80
2023-03-31T22:15:43.389Z,67.75
2023-03-31T22:21:36.943Z,66.98
2023-03-31T22:33:31.008Z,67.80
2023-03-31T22:45:56.197Z,68.33
2023-03-31T22:51:26.356Z,68.67
2023-03-31T23:08:26.679Z,66.60
2023-03-31T23:13:31.514Z,67.15
2023-03-31T23:18:36.671Z,68.26
2023-03-31T23:23:42.954Z,69.16
2023-03-31T23:28:49.953Z,68.79
2023-03-31T23:41:29.886Z,67.70
2023-03-31T23:46:34.131Z,67.95
2023-03-31T23:56:48.919Z,68.19
